createdAt,value
2023-05-02T00:02:06.438Z,64.54
2023-05-02T00:04:33.704Z,64.88
2023-05-02T00:07:01.263Z,65.12
2023-05-02T00:09:29.377Z,64.47
2023-05-02T00:11:56.288Z,64.37
2023-05-02T00:14:23.227Z,64.50
2023-05-02T00:16:50.215Z,64.31
2023-05-02T00:19:17.331Z,64.19
2023-05-02T00:21:47.346Z,65.62
2023-05-02T00:24:14.253Z,64.88
2023-05-02T00:26:41.276Z,64.65
2023-05-02T00:29:08.741Z,65.97
2023-05-02T00:31:36.526Z,66.12
2023-05-02T00:34:03.589Z,66.58
2023-05-02T00:36:30.526Z,65.62
2023-05-02T00:38:57.528Z,64.78
2023-05-02T00:41:24.646Z,66.95
2023-05-02T00:43:51.628Z,68.19
2023-05-02T00:46:18.675Z,66.66
2023-05-02T00:48:46.037Z,65.44
2023-05-02T00:51:13.654Z,66.34
2023-05-02T00:53:42.019Z,64.46
2023-05-02T00:56:10.237Z,62.52
2023-05-02T00:58:41.083Z,62.89
2023-05-02T01:01:26.582Z,63.09
2023-05-02T01:04:33.206Z,62.85
2023-05-02T01:07:06.848Z,63.48
2023-05-02T01:09:58.911Z,64.06
2023-05-02T01:12:42.621Z,62.61
2023-05-02T01:15:15.198Z,67.65
2023-05-02T01:17:44.557Z,65.75
2023-05-02T01:20:20.344Z,65.36
2023-05-02T01:22:49.314Z,64.69
2023-05-02T01:25:38.100Z,66.23
2023-05-02T01:28:22.746Z,64.56
2023-05-02T01:30:51.958Z,68.13
2023-05-02T01:33:20.850Z,68.76
2023-05-02T01:35:52.004Z,67.41
2023-05-02T01:38:22.373Z,65.64
2023-05-02T01:40:51.788Z,65.37
2023-05-02T01:43:20.858Z,67.91
2023-05-02T01:45:51.144Z,66.24
2023-05-02T01:48:19.751Z,66.28
2023-05-02T01:50:48.191Z,65.55
2023-05-02T01:53:15.816Z,64.88
2023-05-02T01:55:46.207Z,64.49
2023-05-02T01:58:15.536Z,64.85
2023-05-02T02:00:45.609Z,65.66
2023-05-02T02:03:14.399Z,66.09
2023-05-02T02:05:42.750Z,65.89
2023-05-02T02:08:09.935Z,66.44
2023-05-02T02:10:45.345Z,65.51
2023-05-02T02:13:26.067Z,64.75
2023-05-02T02:15:59.664Z,63.14
2023-05-02T02:18:29.203Z,63.15
2023-05-02T02:20:58.679Z,64.87
2023-05-02T02:23:28.731Z,66.26
2023-05-02T02:25:57.278Z,64.72
2023-05-02T02:28:24.367Z,65.43
2023-05-02T02:30:51.580Z,65.81
2023-05-02T02:33:19.817Z,64.07
2023-05-02T02:35:58.929Z,64.74
2023-05-02T02:39:03.991Z,64.50
2023-05-02T02:41:42.687Z,63.40
2023-05-02T02:44:26.837Z,63.08
2023-05-02T02:47:06.989Z,62.83
2023-05-02T02:49:47.920Z,64.32
2023-05-02T02:52:28.489Z,66.29
2023-05-02T02:55:35.879Z,65.73
2023-05-02T02:58:13.553Z,64.30
2023-05-02T03:00:41.303Z,63.79
2023-05-02T03:03:08.947Z,65.58
2023-05-02T03:05:36.271Z,66.94
2023-05-02T03:08:03.492Z,67.21
2023-05-02T03:10:30.457Z,68.27
2023-05-02T03:12:57.402Z,72.05
2023-05-02T03:15:51.897Z,69.37
2023-05-02T03:18:19.464Z,71.58
2023-05-02T03:20:46.645Z,69.60
2023-05-02T03:23:13.680Z,68.96
2023-05-02T03:25:40.575Z,69.77
2023-05-02T03:28:07.506Z,68.84
2023-05-02T03:30:35.475Z,68.38
2023-05-02T03:33:05.110Z,67.90
2023-05-02T03:35:32.112Z,66.94
2023-05-02T03:37:59.090Z,65.92
2023-05-02T03:40:28.073Z,66.69
2023-05-02T03:42:55.244Z,68.96
2023-05-02T03:45:22.174Z,71.42
2023-05-02T03:47:49.093Z,70.40
2023-05-02T03:50:16.163Z,69.44
2023-05-02T03:52:43.136Z,70.39
2023-05-02T03:55:10.860Z,71.28
2023-05-02T03:57:37.808Z,70.52
2023-05-02T04:00:06.028Z,71.83
2023-05-02T04:02:33.082Z,74.74
2023-05-02T04:05:00.046Z,73.99
2023-05-02T04:07:27.276Z,73.26
2023-05-02T04:09:54.190Z,73.37
2023-05-02T04:12:21.416Z,72.42
2023-05-02T04:14:48.416Z,71.66
2023-05-02T04:17:18.692Z,71.36
2023-05-02T04:19:45.678Z,71.99
2023-05-02T04:22:12.942Z,71.42
2023-05-02T04:24:39.856Z,71.85
2023-05-02T04:27:06.745Z,69.74
2023-05-02T04:29:33.869Z,66.69
2023-05-02T04:32:00.787Z,64.80
2023-05-02T04:34:28.652Z,61.91
2023-05-02T04:36:55.621Z,60.45
2023-05-02T04:39:22.557Z,57.57
2023-05-02T04:41:49.434Z,54.82
2023-05-02T04:44:16.428Z,52.77
2023-05-02T04:46:43.981Z,50.61
2023-05-02T04:49:11.855Z,50.26
2023-05-02T04:51:38.860Z,48.86
2023-05-02T04:54:05.851Z,45.11
2023-05-02T04:56:32.757Z,46.61
2023-05-02T04:58:59.702Z,44.97
2023-05-02T05:01:29.309Z,45.54
2023-05-02T05:03:56.258Z,45.12
2023-05-02T05:06:23.537Z,45.77
2023-05-02T05:08:50.577Z,44.35
2023-05-02T05:11:17.798Z,44.33
2023-05-02T05:13:44.755Z,44.90
2023-05-02T05:16:12.281Z,46.45
2023-05-02T05:18:42.133Z,45.68
2023-05-02T05:21:10.215Z,47.00
2023-05-02T05:23:38.444Z,46.96
2023-05-02T05:26:12.294Z,49.47
2023-05-02T05:28:39.724Z,48.33
2023-05-02T05:31:11.257Z,49.67
2023-05-02T05:33:39.719Z,49.76
2023-05-02T05:36:15.767Z,49.11
2023-05-02T05:38:42.767Z,50.33
2023-05-02T05:41:14.248Z,50.58
2023-05-02T05:43:50.077Z,52.18
2023-05-02T05:46:17.571Z,50.89
2023-05-02T05:48:44.661Z,50.19
2023-05-02T05:51:11.929Z,48.94
2023-05-02T05:53:40.681Z,49.01
2023-05-02T05:56:13.067Z,47.80
2023-05-02T05:58:40.583Z,47.54
2023-05-02T06:01:08.684Z,47.11
2023-05-02T06:03:35.737Z,49.27
2023-05-02T06:06:02.854Z,48.04
2023-05-02T06:08:30.491Z,49.32
2023-05-02T06:11:01.629Z,48.39
2023-05-02T06:13:28.634Z,48.90
2023-05-02T06:15:55.586Z,50.00
2023-05-02T06:18:22.669Z,51.02
2023-05-02T06:20:49.619Z,49.88
2023-05-02T06:23:16.642Z,49.28
2023-05-02T06:25:43.585Z,49.57
2023-05-02T06:28:10.661Z,49.21
2023-05-02T06:30:37.626Z,48.42
2023-05-02T06:33:05.668Z,46.49
2023-05-02T06:35:32.706Z,45.30
2023-05-02T06:38:00.255Z,45.78
2023-05-02T06:40:27.500Z,44.98
2023-05-02T06:42:54.609Z,44.30
2023-05-02T06:45:21.725Z,44.80
2023-05-02T06:47:48.719Z,43.35
2023-05-02T06:50:16.287Z,42.56
2023-05-02T06:52:43.288Z,43.49
2023-05-02T06:55:10.339Z,43.82
2023-05-02T06:57:37.347Z,43.04
2023-05-02T07:00:05.135Z,45.41
2023-05-02T07:02:32.397Z,43.28
2023-05-02T07:04:59.430Z,42.63
2023-05-02T07:07:26.421Z,42.24
2023-05-02T07:09:53.483Z,46.44
2023-05-02T07:12:21.094Z,45.33
2023-05-02T07:14:48.132Z,45.80
2023-05-02T07:17:16.068Z,45.75
2023-05-02T07:19:45.237Z,43.45
2023-05-02T07:22:12.734Z,42.59
2023-05-02T07:24:43.225Z,42.22
2023-05-02T07:27:12.542Z,41.79
2023-05-02T07:29:40.299Z,43.58
2023-05-02T07:32:07.434Z,42.01
2023-05-02T07:34:35.173Z,38.73
2023-05-02T07:37:02.332Z,40.91
2023-05-02T07:39:30.133Z,42.58
2023-05-02T07:41:57.223Z,41.67
2023-05-02T07:44:24.558Z,40.93
2023-05-02T07:46:53.274Z,40.17
2023-05-02T07:49:20.988Z,40.25
2023-05-02T07:51:48.364Z,40.31
2023-05-02T07:54:18.164Z,40.22
2023-05-02T07:56:45.321Z,38.96
2023-05-02T07:59:12.501Z,38.31
2023-05-02T08:01:40.809Z,42.50
2023-05-02T08:04:09.886Z,40.31
2023-05-02T08:06:37.583Z,40.54
2023-05-02T08:09:04.766Z,42.73
2023-05-02T08:11:31.747Z,44.97
2023-05-02T08:13:58.751Z,43.02
2023-05-02T08:16:25.925Z,42.81
2023-05-02T08:18:52.942Z,44.11
2023-05-02T08:21:20.011Z,44.63
2023-05-02T08:23:47.801Z,43.81
2023-05-02T08:26:19.165Z,42.22
2023-05-02T08:29:06.779Z,45.29
2023-05-02T08:31:36.926Z,43.74
2023-05-02T08:34:04.191Z,46.14
2023-05-02T08:36:32.603Z,46.95
2023-05-02T08:39:00.179Z,46.44
2023-05-02T08:41:29.507Z,45.34
2023-05-02T08:43:57.296Z,46.72
2023-05-02T08:46:26.386Z,45.67
2023-05-02T08:48:54.435Z,46.15
2023-05-02T08:51:24.722Z,45.56
2023-05-02T08:53:53.269Z,43.69
2023-05-02T08:56:20.880Z,45.10
2023-05-02T08:58:47.966Z,43.06
2023-05-02T09:01:19.832Z,42.20
2023-05-02T09:03:48.634Z,43.11
2023-05-02T09:06:21.394Z,42.31
2023-05-02T09:08:50.217Z,40.61
2023-05-02T09:11:17.726Z,41.86
2023-05-02T09:13:52.472Z,42.09
2023-05-02T09:16:24.150Z,41.48
2023-05-02T09:18:59.004Z,40.91
2023-05-02T09:21:35.133Z,39.94
2023-05-02T09:24:04.155Z,39.96
2023-05-02T09:26:32.974Z,42.12
2023-05-02T09:29:07.155Z,42.84
2023-05-02T09:34:14.917Z,40.80
2023-05-02T09:36:44.349Z,41.13
2023-05-02T09:39:12.179Z,38.45
2023-05-02T09:41:43.866Z,38.86
2023-05-02T09:44:12.959Z,39.20
2023-05-02T09:46:42.347Z,41.59
2023-05-02T09:49:12.983Z,41.89
2023-05-02T09:51:40.077Z,39.66
2023-05-02T09:54:07.450Z,40.29
2023-05-02T09:56:57.015Z,38.70
2023-05-02T09:59:24.966Z,39.26
2023-05-02T10:02:03.316Z,40.96
2023-05-02T10:04:32.955Z,42.74
2023-05-02T10:07:02.039Z,42.34
2023-05-02T10:09:32.924Z,42.27
2023-05-02T10:12:08.675Z,43.49
2023-05-02T10:14:51.074Z,41.56
2023-05-02T10:17:28.651Z,42.08
2023-05-02T10:20:06.832Z,42.42
2023-05-02T10:22:35.610Z,40.21
2023-05-02T10:25:04.175Z,42.61
2023-05-02T10:27:32.429Z,40.66
2023-05-02T10:30:00.819Z,39.45
2023-05-02T10:32:29.734Z,40.35
2023-05-02T10:35:07.378Z,41.05
2023-05-02T10:37:38.764Z,40.00
2023-05-02T10:40:06.756Z,41.81
2023-05-02T10:42:40.543Z,41.49
2023-05-02T10:45:30.644Z,40.68
2023-05-02T10:48:19.917Z,41.13
2023-05-02T10:50:56.400Z,40.40
2023-05-02T10:53:37.087Z,40.00
2023-05-02T10:56:21.990Z,43.08
2023-05-02T10:58:51.916Z,41.89
2023-05-02T11:01:31.313Z,41.02
2023-05-02T11:03:58.714Z,43.35
2023-05-02T11:06:29.146Z,41.79
2023-05-02T11:09:16.700Z,42.34
2023-05-02T11:11:45.176Z,40.90
2023-05-02T11:14:32.756Z,39.50
2023-05-02T11:17:05.655Z,39.48
2023-05-02T11:19:39.158Z,40.81
2023-05-02T11:22:19.319Z,38.61
2023-05-02T11:24:48.396Z,41.05
2023-05-02T11:27:30.776Z,38.51
2023-05-02T11:29:58.958Z,39.52
2023-05-02T11:32:50.180Z,39.06
2023-05-02T11:35:21.330Z,42.76
2023-05-02T11:37:59.873Z,41.72
2023-05-02T11:40:28.630Z,42.44
2023-05-02T11:42:57.859Z,42.66
2023-05-02T11:45:38.177Z,40.13
2023-05-02T11:48:09.602Z,38.68
2023-05-02T11:50:50.174Z,38.08
2023-05-02T11:53:23.740Z,37.53
2023-05-02T11:55:55.888Z,40.81
2023-05-02T11:58:24.839Z,40.91
2023-05-02T12:00:53.370Z,40.85
2023-05-02T12:03:22.698Z,40.22
2023-05-02T12:05:50.578Z,40.25
2023-05-02T12:08:28.416Z,40.34
2023-05-02T12:10:56.827Z,40.85
2023-05-02T12:13:25.864Z,43.13
2023-05-02T12:15:54.749Z,43.66
2023-05-02T12:18:27.243Z,41.07
2023-05-02T12:20:55.823Z,42.29
2023-05-02T12:23:24.957Z,40.77
2023-05-02T12:25:52.138Z,41.58
2023-05-02T12:28:20.518Z,42.41
2023-05-02T12:30:49.182Z,43.13
2023-05-02T12:33:17.493Z,44.61
2023-05-02T12:35:49.251Z,41.17
2023-05-02T12:38:18.540Z,42.57
2023-05-02T12:40:53.986Z,42.89
2023-05-02T12:43:22.336Z,43.63
2023-05-02T12:45:50.380Z,42.94
2023-05-02T12:48:27.860Z,43.85
2023-05-02T12:50:55.897Z,44.28
2023-05-02T12:53:45.317Z,42.77
2023-05-02T12:56:13.680Z,42.95
2023-05-02T12:58:48.365Z,41.69
2023-05-02T13:01:16.365Z,41.16
2023-05-02T13:03:44.400Z,40.37
2023-05-02T13:06:12.091Z,42.85
2023-05-02T13:08:39.621Z,41.82
2023-05-02T13:11:06.757Z,42.51
2023-05-02T13:13:35.733Z,44.89
2023-05-02T13:16:03.006Z,45.60
2023-05-02T13:18:30.251Z,45.76
2023-05-02T13:20:57.412Z,46.84
2023-05-02T13:23:24.692Z,47.09
2023-05-02T13:25:52.024Z,46.10
2023-05-02T13:28:19.201Z,45.23
2023-05-02T13:30:46.359Z,45.25
2023-05-02T13:33:19.574Z,45.72
2023-05-02T13:35:47.933Z,46.35
2023-05-02T13:38:14.998Z,46.00
2023-05-02T13:40:42.163Z,46.81
2023-05-02T13:43:13.419Z,47.45
2023-05-02T13:45:40.415Z,46.28
2023-05-02T13:48:07.510Z,46.66
2023-05-02T13:50:37.657Z,47.16
2023-05-02T13:53:20.215Z,47.75
2023-05-02T13:55:49.038Z,48.71
2023-05-02T13:58:16.119Z,49.27
2023-05-02T14:00:43.177Z,49.95
2023-05-02T14:03:43.371Z,53.20
2023-05-02T14:06:10.749Z,52.84
2023-05-02T14:08:38.717Z,52.15
2023-05-02T14:11:07.296Z,52.85
2023-05-02T14:13:34.590Z,53.65
2023-05-02T14:16:01.681Z,54.42
2023-05-02T14:18:28.720Z,54.29
2023-05-02T14:21:00.160Z,54.49
2023-05-02T14:23:28.636Z,57.71
2023-05-02T14:25:56.063Z,57.33
2023-05-02T14:28:23.406Z,58.17
2023-05-02T14:30:51.331Z,57.79
2023-05-02T14:33:18.362Z,56.54
2023-05-02T14:35:46.067Z,58.02
2023-05-02T14:38:13.031Z,59.71
2023-05-02T14:40:40.004Z,58.76
2023-05-02T14:43:07.632Z,59.14
2023-05-02T14:45:35.143Z,60.48
2023-05-02T14:48:02.182Z,60.57
2023-05-02T14:50:29.524Z,60.30
2023-05-02T14:52:56.522Z,59.89
2023-05-02T14:55:23.555Z,61.52
2023-05-02T14:57:50.604Z,60.72
2023-05-02T15:00:17.973Z,60.11
2023-05-02T15:02:45.004Z,60.85
2023-05-02T15:05:12.917Z,62.24
2023-05-02T15:07:40.167Z,61.14
2023-05-02T15:10:07.666Z,62.26
2023-05-02T15:12:34.650Z,63.82
2023-05-02T15:15:01.590Z,62.45
2023-05-02T15:17:28.614Z,64.34
2023-05-02T15:19:58.260Z,65.18
2023-05-02T15:22:26.349Z,62.48
2023-05-02T15:24:53.956Z,65.11
2023-05-02T15:27:21.028Z,67.22
2023-05-02T15:29:47.963Z,66.26
2023-05-02T15:32:15.001Z,70.27
2023-05-02T15:34:41.961Z,70.24
2023-05-02T15:37:08.924Z,69.94
2023-05-02T15:39:35.805Z,71.10
2023-05-02T15:42:06.498Z,71.43
2023-05-02T15:44:38.856Z,72.53
2023-05-02T15:47:06.015Z,72.20
2023-05-02T15:49:34.671Z,70.41
2023-05-02T15:52:02.985Z,68.24
2023-05-02T15:54:30.114Z,69.55
2023-05-02T15:56:57.377Z,72.57
2023-05-02T15:59:24.377Z,70.97
2023-05-02T16:01:51.545Z,70.35
2023-05-02T16:04:18.601Z,70.50
2023-05-02T16:06:45.914Z,71.72
2023-05-02T16:09:13.198Z,72.89
2023-05-02T16:11:40.176Z,76.33
2023-05-02T16:14:07.077Z,72.97
2023-05-02T16:16:34.609Z,77.73
2023-05-02T16:19:01.600Z,76.43
2023-05-02T16:21:28.653Z,75.87
2023-05-02T16:23:55.728Z,78.40
2023-05-02T16:26:22.660Z,80.32
2023-05-02T16:28:49.616Z,78.72
2023-05-02T16:31:16.676Z,80.29
2023-05-02T16:33:43.594Z,80.16
2023-05-02T16:36:10.557Z,85.08
2023-05-02T16:38:37.566Z,89.85
2023-05-02T16:41:07.275Z,86.63
2023-05-02T16:43:34.336Z,86.70
2023-05-02T16:46:02.827Z,88.09
2023-05-02T16:48:29.975Z,88.58
2023-05-02T16:50:57.279Z,87.13
2023-05-02T16:53:24.802Z,88.33
2023-05-02T16:55:51.910Z,90.45
2023-05-02T16:58:19.418Z,89.71
2023-05-02T17:00:46.564Z,93.60
2023-05-02T17:03:13.683Z,93.28
2023-05-02T17:05:41.666Z,92.36
2023-05-02T17:08:09.254Z,93.89
2023-05-02T17:10:37.405Z,93.50
2023-05-02T17:13:04.413Z,96.07
2023-05-02T17:15:31.555Z,100.00
2023-05-02T17:17:58.499Z,99.10
2023-05-02T17:20:25.506Z,98.98
2023-05-02T17:22:54.632Z,99.45
2023-05-02T17:25:21.610Z,100.00
2023-05-02T17:27:48.533Z,100.00
2023-05-02T17:30:15.506Z,100.00
2023-05-02T17:32:42.466Z,100.00
2023-05-02T17:35:09.934Z,100.00
2023-05-02T17:37:38.479Z,100.00
2023-05-02T17:40:06.364Z,99.51
2023-05-02T17:42:33.304Z,98.85
2023-05-02T17:45:00.286Z,93.90
2023-05-02T17:47:27.192Z,97.98
2023-05-02T17:49:54.552Z,100.00
2023-05-02T17:52:21.865Z,100.00
2023-05-02T17:54:48.822Z,100.00
2023-05-02T17:57:17.277Z,100.00
2023-05-02T17:59:44.761Z,100.00
2023-05-02T18:02:11.852Z,100.00
2023-05-02T18:04:38.896Z,100.00
2023-05-02T18:07:06.267Z,100.00
2023-05-02T18:09:33.291Z,100.00
2023-05-02T18:12:00.949Z,100.00
2023-05-02T18:14:27.892Z,100.00
2023-05-02T18:16:54.879Z,100.00
2023-05-02T18:19:23.190Z,100.00
2023-05-02T18:21:50.286Z,100.00
2023-05-02T18:24:17.209Z,100.00
2023-05-02T18:26:44.145Z,100.00
2023-05-02T18:29:11.109Z,100.00
2023-05-02T18:31:40.561Z,100.00
2023-05-02T18:34:07.712Z,100.00
2023-05-02T18:36:34.747Z,100.00
2023-05-02T18:39:01.675Z,100.00
2023-05-02T18:41:28.663Z,100.00
2023-05-02T18:43:56.691Z,100.00
2023-05-02T18:46:24.428Z,100.00
2023-05-02T18:48:51.443Z,100.00
2023-05-02T18:51:18.716Z,100.00
2023-05-02T18:53:45.674Z,100.00
2023-05-02T18:56:14.723Z,100.00
2023-05-02T18:58:42.435Z,100.00
2023-05-02T19:01:16.081Z,100.00
2023-05-02T19:03:44.011Z,100.00
2023-05-02T19:06:11.319Z,100.00
2023-05-02T19:08:40.421Z,100.00
2023-05-02T19:11:07.575Z,100.00
2023-05-02T19:13:34.676Z,100.00
2023-05-02T19:16:01.765Z,100.00
2023-05-02T19:18:28.759Z,100.00
2023-05-02T19:20:55.772Z,100.00
2023-05-02T19:23:23.392Z,100.00
2023-05-02T19:25:50.418Z,100.00
2023-05-02T19:28:17.463Z,100.00
2023-05-02T19:30:44.874Z,100.00
2023-05-02T19:33:12.064Z,100.00
2023-05-02T19:35:39.650Z,100.00
2023-05-02T19:38:06.613Z,100.00
2023-05-02T19:40:33.626Z,100.00
2023-05-02T19:43:00.729Z,100.00
2023-05-02T19:45:27.998Z,100.00
2023-05-02T19:47:55.052Z,100.00
2023-05-02T19:50:22.004Z,100.00
2023-05-02T19:52:50.719Z,100.00
2023-05-02T19:55:18.748Z,100.00
2023-05-02T19:57:45.802Z,100.00
2023-05-02T20:00:14.271Z,100.00
2023-05-02T20:02:41.454Z,100.00
2023-05-02T20:05:09.012Z,100.00
2023-05-02T20:07:36.328Z,100.00
2023-05-02T20:10:03.873Z,100.00
2023-05-02T20:12:31.003Z,100.00
2023-05-02T20:14:57.920Z,100.00
2023-05-02T20:17:24.886Z,100.00
2023-05-02T20:19:51.848Z,100.00
2023-05-02T20:22:19.356Z,100.00
2023-05-02T20:24:46.508Z,100.00
2023-05-02T20:27:13.738Z,100.00
2023-05-02T20:29:40.894Z,100.00
2023-05-02T20:32:09.413Z,100.00
2023-05-02T20:34:36.523Z,100.00
2023-05-02T20:37:07.136Z,100.00
2023-05-02T20:39:34.046Z,100.00
2023-05-02T20:42:01.636Z,100.00
2023-05-02T20:44:28.715Z,100.00
2023-05-02T20:46:55.698Z,100.00
2023-05-02T20:49:22.663Z,100.00
2023-05-02T20:51:50.457Z,100.00
2023-05-02T20:54:18.403Z,100.00
2023-05-02T20:56:45.526Z,100.00
2023-05-02T20:59:12.650Z,100.00
2023-05-02T21:01:39.662Z,100.00
2023-05-02T21:04:06.760Z,100.00
2023-05-02T21:06:33.900Z,100.00
2023-05-02T21:09:02.420Z,100.00
2023-05-02T21:11:29.518Z,100.00
2023-05-02T21:13:56.444Z,100.00
2023-05-02T21:16:23.599Z,100.00
2023-05-02T21:18:50.705Z,100.00
2023-05-02T21:21:17.714Z,100.00
2023-05-02T21:23:44.737Z,100.00
2023-05-02T21:26:11.797Z,100.00
2023-05-02T21:28:38.933Z,100.00
2023-05-02T21:31:07.867Z,100.00
2023-05-02T21:33:35.005Z,100.00
2023-05-02T21:36:01.956Z,100.00
2023-05-02T21:38:29.363Z,100.00
2023-05-02T21:40:56.378Z,100.00
2023-05-02T21:43:23.439Z,100.00
2023-05-02T21:45:50.799Z,100.00
2023-05-02T21:48:17.800Z,100.00
2023-05-02T21:50:45.263Z,100.00
2023-05-02T21:53:12.938Z,100.00
2023-05-02T21:55:39.980Z,100.00
2023-05-02T21:58:08.718Z,100.00
2023-05-02T22:00:40.835Z,100.00
2023-05-02T22:03:11.805Z,100.00
2023-05-02T22:05:42.347Z,100.00
2023-05-02T22:08:11.293Z,100.00
2023-05-02T22:10:40.453Z,100.00
2023-05-02T22:13:12.523Z,100.00
2023-05-02T22:15:47.395Z,100.00
2023-05-02T22:18:18.002Z,100.00
2023-05-02T22:20:45.708Z,100.00
2023-05-02T22:23:13.091Z,100.00
2023-05-02T22:25:42.404Z,100.00
2023-05-02T22:28:13.808Z,100.00
2023-05-02T22:30:43.265Z,100.00
2023-05-02T22:33:10.256Z,100.00
2023-05-02T22:35:38.029Z,100.00
2023-05-02T22:38:06.088Z,100.00
2023-05-02T22:40:33.372Z,100.00
2023-05-02T22:43:01.146Z,100.00
2023-05-02T22:45:28.176Z,100.00
2023-05-02T22:47:55.500Z,100.00
2023-05-02T22:50:22.491Z,100.00
2023-05-02T22:52:49.508Z,100.00
2023-05-02T22:55:16.533Z,100.00
2023-05-02T22:57:43.668Z,100.00
2023-05-02T23:00:11.438Z,100.00
2023-05-02T23:02:38.781Z,100.00
2023-05-02T23:05:07.258Z,100.00
2023-05-02T23:07:34.357Z,100.00
2023-05-02T23:10:01.876Z,100.00
2023-05-02T23:12:29.125Z,100.00
2023-05-02T23:14:56.115Z,100.00
2023-05-02T23:17:23.428Z,100.00
2023-05-02T23:19:50.734Z,100.00
2023-05-02T23:22:17.811Z,100.00
2023-05-02T23:24:47.598Z,100.00
2023-05-02T23:27:14.498Z,100.00
2023-05-02T23:29:41.497Z,100.00
2023-05-02T23:32:08.767Z,100.00
2023-05-02T23:34:38.878Z,100.00
2023-05-02T23:37:07.138Z,100.00
2023-05-02T23:39:34.451Z,100.00
2023-05-02T23:42:03.917Z,100.00
2023-05-02T23:44:31.547Z,100.00
2023-05-02T23:47:01.557Z,100.00
2023-05-02T23:49:28.571Z,100.00
2023-05-02T23:51:55.612Z,100.00
2023-05-02T23:54:22.540Z,100.00
2023-05-02T23:56:49.531Z,100.00
2023-05-02T23:59:16.561Z,100.00
